Time;durP1;ratioP1;P1;durP2;ratioP2;P2;SDS_P1;SDS_P2;PMS_P1;PMS_P2;Temp;Humidity;BMP_temperature;BMP_pressure;BME280_temperature;BME280_humidity;BME280_pressure;Samples;Min_cycle;Max_cycle;Signal;HPM_P1;HPM_P2
2022/05/19 00:00:30;;;;;;;10.32;4.82;;;;;;;;;;2106469;28;20581;-46
2022/05/19 00:01:31;;;;;;;7.63;4.68;;;;;;;;;;2106490;28;20439;-47
2022/05/19 00:02:32;;;;;;;8.48;4.00;;;;;;;;;;2106462;28;20059;-46
2022/05/19 00:03:35;;;;;;;8.27;3.70;;;;;;;;;;2106356;28;20572;-47
2022/05/19 00:04:36;;;;;;;10.93;5.35;;;;;;;;;;2106507;28;20101;-46
2022/05/19 00:05:37;;;;;;;8.15;4.40;;;;;;;;;;2106448;28;20052;-47
2022/05/19 00:06:39;;;;;;;11.17;5.17;;;;;;;;;;2106412;28;20048;-46
2022/05/19 00:07:40;;;;;;;11.05;5.95;;;;;;;;;;2106565;28;20127;-46
2022/05/19 00:08:41;;;;;;;12.77;5.00;;;;;;;;;;2106286;28;20497;-47
2022/05/19 00:09:42;;;;;;;11.93;4.00;;;;;;;;;;2106353;28;20126;-47
2022/05/19 00:10:43;;;;;;;8.93;4.60;;;;;;;;;;2106545;28;20052;-47
2022/05/19 00:11:45;;;;;;;10.25;4.85;;;;;;;;;;2106380;28;20127;-47
2022/05/19 00:12:46;;;;;;;11.95;5.00;;;;;;;;;;2106489;28;20119;-46
2022/05/19 00:13:48;;;;;;;9.38;4.95;;;;;;;;;;2106289;28;20044;-47
2022/05/19 00:14:49;;;;;;;8.60;3.83;;;;;;;;;;2106360;28;20522;-47
2022/05/19 00:15:50;;;;;;;11.32;4.53;;;;;;;;;;2106255;28;20484;-47
2022/05/19 00:16:52;;;;;;;12.68;5.95;;;;;;;;;;2106393;28;20472;-47
2022/05/19 00:17:53;;;;;;;10.20;5.38;;;;;;;;;;2106309;28;20405;-47
2022/05/19 00:18:54;;;;;;;11.90;3.83;;;;;;;;;;2101651;28;20059;-47
2022/05/19 00:19:55;;;;;;;8.30;4.65;;;;;;;;;;2097988;28;20044;-47
2022/05/19 00:20:56;;;;;;;11.00;5.07;;;;;;;;;;2097943;28;20056;-48
2022/05/19 00:21:58;;;;;;;14.75;6.25;;;;;;;;;;2097928;28;20044;-47
2022/05/19 00:22:59;;;;;;;8.60;5.13;;;;;;;;;;2097908;28;20040;-49
2022/05/19 00:24:00;;;;;;;8.18;4.35;;;;;;;;;;2097827;28;20629;-47
2022/05/19 00:25:01;;;;;;;8.68;4.85;;;;;;;;;;2097925;28;20099;-46
2022/05/19 00:26:02;;;;;;;9.52;4.45;;;;;;;;;;2097972;28;20052;-46
2022/05/19 00:27:03;;;;;;;13.05;5.50;;;;;;;;;;2104849;28;20048;-46
2022/05/19 00:28:05;;;;;;;12.93;5.15;;;;;;;;;;2106174;28;20401;-47
2022/05/19 00:29:06;;;;;;;;;;;;;;;;;;2105602;28;20135;-47
2022/05/19 00:30:08;;;;;;;13.07;6.00;;;;;;;;;;2106414;28;20392;-46
2022/05/19 00:31:09;;;;;;;11.27;4.60;;;;;;;;;;2106204;28;20092;-46
2022/05/19 00:32:10;;;;;;;10.57;5.38;;;;;;;;;;2106225;28;20040;-47
2022/05/19 00:33:12;;;;;;;10.20;5.55;;;;;;;;;;2106299;28;20390;-47
2022/05/19 00:34:12;;;;;;;11.27;5.43;;;;;;;;;;2106212;28;20047;-46
2022/05/19 00:35:14;;;;;;;17.13;6.05;;;;;;;;;;2106273;28;20048;-46
2022/05/19 00:36:16;;;;;;;13.02;4.97;;;;;;;;;;2106286;28;20139;-46
2022/05/19 00:37:17;;;;;;;12.15;5.93;;;;;;;;;;2106111;28;20428;-46
2022/05/19 00:38:18;;;;;;;13.50;5.60;;;;;;;;;;2106244;28;20048;-46
2022/05/19 00:39:19;;;;;;;9.70;5.43;;;;;;;;;;2106108;28;20483;-47
2022/05/19 00:40:21;;;;;;;14.15;4.93;;;;;;;;;;2106281;28;20101;-48
2022/05/19 00:41:23;;;;;;;12.45;6.45;;;;;;;;;;2106172;28;20077;-48
2022/05/19 00:43:45;;;;;;;11.30;6.05;;;;;;;;;;2106120;28;20503;-48
2022/05/19 00:44:46;;;;;;;13.15;5.60;;;;;;;;;;2106222;28;20056;-47
2022/05/19 00:45:51;;;;;;;9.70;5.60;;;;;;;;;;2106226;28;20052;-48
2022/05/19 00:46:53;;;;;;;13.48;5.85;;;;;;;;;;2106192;28;20117;-60
2022/05/19 00:47:59;;;;;;;12.02;5.43;;;;;;;;;;2106019;28;20131;-60
2022/05/19 00:49:02;;;;;;;12.95;5.75;;;;;;;;;;2106203;28;20127;-60
2022/05/19 00:50:04;;;;;;;13.32;7.18;;;;;;;;;;2106109;28;20119;-60
2022/05/19 00:51:07;;;;;;;11.23;5.20;;;;;;;;;;2106326;28;20115;-61
2022/05/19 00:52:10;;;;;;;14.60;7.00;;;;;;;;;;2106114;28;20097;-60
2022/05/19 00:53:13;;;;;;;12.40;5.88;;;;;;;;;;2106184;28;20127;-60
2022/05/19 00:54:15;;;;;;;11.48;6.10;;;;;;;;;;2105993;28;20127;-60
2022/05/19 00:55:17;;;;;;;11.75;5.28;;;;;;;;;;2106125;28;20176;-60
2022/05/19 00:56:18;;;;;;;;;;;;;;;;;;2106553;28;20135;-60
2022/05/19 00:57:21;;;;;;;10.40;5.20;;;;;;;;;;2106220;28;19920;-60
2022/05/19 00:58:23;;;;;;;12.07;5.38;;;;;;;;;;2105974;28;20048;-60
2022/05/19 00:59:28;;;;;;;12.05;6.28;;;;;;;;;;2105896;28;20404;-60
2022/05/19 01:00:29;;;;;;;12.07;6.20;;;;;;;;;;2106142;28;20323;-60
2022/05/19 01:01:30;;;;;;;11.98;5.45;;;;;;;;;;2106198;28;20397;-60
2022/05/19 01:02:34;;;;;;;10.90;5.78;;;;;;;;;;2106136;28;20048;-60
2022/05/19 01:03:39;;;;;;;12.07;6.20;;;;;;;;;;2105891;28;20055;-60
2022/05/19 01:04:43;;;;;;;15.52;6.38;;;;;;;;;;2105948;28;20135;-60
2022/05/19 01:05:46;;;;;;;15.20;6.10;;;;;;;;;;2106038;28;20331;-60
2022/05/19 01:06:48;;;;;;;16.55;6.63;;;;;;;;;;2105977;28;20507;-60
2022/05/19 01:07:49;;;;;;;;;;;;;;;;;;2106344;28;20097;-60
2022/05/19 01:08:53;;;;;;;12.82;5.80;;;;;;;;;;2105995;28;20022;-60
2022/05/19 01:09:55;;;;;;;11.82;5.40;;;;;;;;;;2105967;28;20161;-60
2022/05/19 01:10:56;;;;;;;;;;;;;;;;;;2106557;28;20100;-60
2022/05/19 01:11:57;;;;;;;9.57;5.18;;;;;;;;;;2105929;28;20586;-60
2022/05/19 01:12:58;;;;;;;15.10;5.85;;;;;;;;;;2106046;28;20143;-60
2022/05/19 01:14:00;;;;;;;11.98;6.85;;;;;;;;;;2106203;28;20050;-60
2022/05/19 01:15:02;;;;;;;15.18;6.25;;;;;;;;;;2105889;28;20123;-60
2022/05/19 01:16:04;;;;;;;15.45;6.60;;;;;;;;;;2106157;28;20071;-60
2022/05/19 01:17:06;;;;;;;12.02;6.07;;;;;;;;;;2105924;28;20051;-60
2022/05/19 01:18:07;;;;;;;9.95;4.88;;;;;;;;;;2105950;28;20378;-60
2022/05/19 01:19:13;;;;;;;15.10;6.22;;;;;;;;;;2099166;28;20135;-60
2022/05/19 01:20:16;;;;;;;15.13;7.30;;;;;;;;;;2097622;28;20044;-60
2022/05/19 01:21:18;;;;;;;12.45;5.88;;;;;;;;;;2097634;28;20098;-60
2022/05/19 01:22:23;;;;;;;10.52;5.95;;;;;;;;;;2097720;28;20048;-60
2022/05/19 01:23:28;;;;;;;14.15;5.88;;;;;;;;;;2105372;28;20139;-60
2022/05/19 01:24:32;;;;;;;11.65;5.60;;;;;;;;;;2106289;28;20044;-47
2022/05/19 01:25:38;;;;;;;15.98;7.32;;;;;;;;;;2105915;28;20136;-46
2022/05/19 01:26:44;;;;;;;17.73;6.43;;;;;;;;;;2105834;28;20560;-47
2022/05/19 01:27:45;;;;;;;11.85;6.28;;;;;;;;;;2105722;28;20066;-50
2022/05/19 01:28:46;;;;;;;12.67;6.37;;;;;;;;;;2105942;28;20048;-47
2022/05/19 01:29:49;;;;;;;16.85;6.57;;;;;;;;;;2105898;28;20096;-46
2022/05/19 01:30:51;;;;;;;16.10;5.80;;;;;;;;;;2106004;28;20048;-47
2022/05/19 01:31:52;;;;;;;16.80;5.82;;;;;;;;;;2106035;28;20059;-48
2022/05/19 01:32:54;;;;;;;;;;;;;;;;;;2106222;28;20378;-47
2022/05/19 01:33:55;;;;;;;15.45;6.05;;;;;;;;;;2105743;28;20400;-47
2022/05/19 01:34:56;;;;;;;13.95;6.82;;;;;;;;;;2105863;28;20050;-47
2022/05/19 01:35:57;;;;;;;16.10;6.38;;;;;;;;;;2105850;28;20698;-47
2022/05/19 01:36:59;;;;;;;16.23;6.65;;;;;;;;;;2105862;28;20058;-46
2022/05/19 01:38:01;;;;;;;13.43;7.32;;;;;;;;;;2105780;28;20504;-47
2022/05/19 01:39:04;;;;;;;16.20;6.47;;;;;;;;;;2106013;28;20055;-60
2022/05/19 01:40:11;;;;;;;15.23;6.18;;;;;;;;;;2105584;28;20134;-60
2022/05/19 01:41:17;;;;;;;14.50;6.65;;;;;;;;;;2105816;28;20044;-60
2022/05/19 01:42:26;;;;;;;14.73;7.55;;;;;;;;;;2105925;28;20097;-60
2022/05/19 01:43:30;;;;;;;12.23;6.30;;;;;;;;;;2105726;28;20512;-60
2022/05/19 01:44:37;;;;;;;14.07;7.03;;;;;;;;;;2105976;28;20127;-47
2022/05/19 01:45:47;;;;;;;12.68;6.95;;;;;;;;;;2105900;28;20056;-47
2022/05/19 01:46:51;;;;;;;12.48;5.93;;;;;;;;;;2105753;28;20575;-47
2022/05/19 01:47:55;;;;;;;16.77;7.45;;;;;;;;;;2105640;28;20052;-47
2022/05/19 01:48:59;;;;;;;16.38;5.95;;;;;;;;;;2105814;28;20065;-47
2022/05/19 01:50:02;;;;;;;12.68;6.45;;;;;;;;;;2105868;28;20552;-47
2022/05/19 01:51:06;;;;;;;14.35;6.68;;;;;;;;;;2105659;28;20048;-47
2022/05/19 01:52:12;;;;;;;13.75;6.85;;;;;;;;;;2105715;28;20523;-47
2022/05/19 01:53:15;;;;;;;10.13;6.18;;;;;;;;;;2105723;28;20174;-46
2022/05/19 01:54:18;;;;;;;17.55;7.63;;;;;;;;;;2105631;28;20461;-47
2022/05/19 01:55:22;;;;;;;13.95;7.18;;;;;;;;;;2105703;28;20054;-47
2022/05/19 01:56:26;;;;;;;12.80;5.88;;;;;;;;;;2105756;28;20071;-46
2022/05/19 01:57:31;;;;;;;12.73;6.30;;;;;;;;;;2105602;28;20077;-48
2022/05/19 01:58:34;;;;;;;18.38;6.53;;;;;;;;;;2105692;28;20044;-49
2022/05/19 01:59:38;;;;;;;14.73;6.60;;;;;;;;;;2105607;28;20131;-47
2022/05/19 02:00:39;;;;;;;14.68;7.38;;;;;;;;;;2105618;28;20134;-47
2022/05/19 02:01:44;;;;;;;16.65;6.45;;;;;;;;;;2105704;28;20181;-47
2022/05/19 02:02:48;;;;;;;17.70;7.28;;;;;;;;;;2105636;28;20400;-46
2022/05/19 02:03:52;;;;;;;13.15;6.07;;;;;;;;;;2105467;28;20087;-47
2022/05/19 02:04:56;;;;;;;12.43;6.35;;;;;;;;;;2105649;28;20135;-47
2022/05/19 02:06:00;;;;;;;12.05;6.40;;;;;;;;;;2105631;28;20135;-48
2022/05/19 02:07:04;;;;;;;11.55;5.53;;;;;;;;;;2105808;28;20039;-46
2022/05/19 02:08:06;;;;;;;16.92;7.13;;;;;;;;;;2105744;28;20184;-46
2022/05/19 02:09:09;;;;;;;18.88;8.07;;;;;;;;;;2105626;28;20054;-47
2022/05/19 02:10:13;;;;;;;14.77;6.72;;;;;;;;;;2105766;28;20544;-47
2022/05/19 02:11:17;;;;;;;18.98;7.55;;;;;;;;;;2105575;28;20507;-47
2022/05/19 02:12:19;;;;;;;12.57;6.22;;;;;;;;;;2105585;28;20139;-46
2022/05/19 02:13:21;;;;;;;15.77;6.95;;;;;;;;;;2105656;28;20525;-47
2022/05/19 02:14:24;;;;;;;17.17;7.97;;;;;;;;;;2105605;28;20138;-47
2022/05/19 02:15:26;;;;;;;18.00;6.85;;;;;;;;;;2105683;28;20119;-47
2022/05/19 02:16:30;;;;;;;11.60;6.05;;;;;;;;;;2105692;28;20079;-48
2022/05/19 02:17:32;;;;;;;12.05;6.60;;;;;;;;;;2105558;28;20058;-48
2022/05/19 02:18:33;;;;;;;;;;;;;;;;;;2104236;28;20048;-47
2022/05/19 02:19:37;;;;;;;15.40;6.40;;;;;;;;;;2104471;28;19978;-48
2022/05/19 02:20:39;;;;;;;17.52;6.40;;;;;;;;;;2105656;28;20048;-47
2022/05/19 02:21:41;;;;;;;11.55;5.95;;;;;;;;;;2105604;28;20524;-47
2022/05/19 02:22:43;;;;;;;12.55;5.63;;;;;;;;;;2105731;28;20055;-48
2022/05/19 02:23:44;;;;;;;;;;;;;;;;;;2106101;28;20127;-47
2022/05/19 02:24:47;;;;;;;18.08;7.32;;;;;;;;;;2105504;28;20321;-48
2022/05/19 02:25:50;;;;;;;12.80;6.07;;;;;;;;;;2105550;28;20151;-47
2022/05/19 02:26:51;;;;;;;16.33;7.10;;;;;;;;;;2105511;28;20400;-50
2022/05/19 02:27:53;;;;;;;17.57;6.77;;;;;;;;;;2105499;28;20097;-47
2022/05/19 02:28:56;;;;;;;10.23;6.20;;;;;;;;;;2105467;28;20090;-47
2022/05/19 02:29:58;;;;;;;13.90;7.20;;;;;;;;;;2105596;28;20130;-47
2022/05/19 02:31:00;;;;;;;13.55;6.47;;;;;;;;;;2105586;28;20603;-47
2022/05/19 02:32:01;;;;;;;12.07;6.75;;;;;;;;;;2105566;28;20546;-48
2022/05/19 02:33:02;;;;;;;16.13;6.33;;;;;;;;;;2105641;28;20092;-47
2022/05/19 02:34:03;;;;;;;16.10;6.78;;;;;;;;;;2105578;28;20111;-47
2022/05/19 02:35:05;;;;;;;11.73;6.50;;;;;;;;;;2105466;28;20072;-47
2022/05/19 02:36:07;;;;;;;14.02;6.70;;;;;;;;;;2105392;28;20483;-47
2022/05/19 02:37:08;;;;;;;13.60;6.60;;;;;;;;;;2105455;28;20515;-47
2022/05/19 02:38:11;;;;;;;14.18;6.85;;;;;;;;;;2105489;28;20646;-48
2022/05/19 02:39:12;;;;;;;16.30;5.80;;;;;;;;;;2105730;28;20043;-59
2022/05/19 02:40:15;;;;;;;13.02;6.25;;;;;;;;;;2105491;28;20046;-59
2022/05/19 02:41:16;;;;;;;13.07;6.03;;;;;;;;;;2105583;28;20062;-59
2022/05/19 02:42:17;;;;;;;13.53;7.00;;;;;;;;;;2105504;28;20582;-59
2022/05/19 02:43:19;;;;;;;16.33;7.47;;;;;;;;;;2105585;28;20123;-59
2022/05/19 02:44:21;;;;;;;16.08;6.97;;;;;;;;;;2105350;28;20056;-59
2022/05/19 02:45:22;;;;;;;12.85;5.93;;;;;;;;;;2105501;28;20177;-59
2022/05/19 02:46:24;;;;;;;14.85;6.25;;;;;;;;;;2105400;28;20623;-59
2022/05/19 02:47:25;;;;;;;16.65;6.97;;;;;;;;;;2105597;28;20048;-60
2022/05/19 02:48:26;;;;;;;12.82;6.22;;;;;;;;;;2105328;28;20059;-60
2022/05/19 02:49:28;;;;;;;17.48;7.55;;;;;;;;;;2105376;28;20373;-59
2022/05/19 02:50:29;;;;;;;13.90;6.20;;;;;;;;;;2105495;28;20077;-59
2022/05/19 02:51:30;;;;;;;16.80;7.88;;;;;;;;;;2105363;28;20048;-59
2022/05/19 02:52:31;;;;;;;12.73;5.55;;;;;;;;;;2106488;28;20048;-60
2022/05/19 02:53:32;;;;;;;12.90;6.85;;;;;;;;;;2106746;28;20382;-59
2022/05/19 02:54:34;;;;;;;14.48;7.07;;;;;;;;;;2106992;28;20143;-59
2022/05/19 02:55:35;;;;;;;14.35;6.53;;;;;;;;;;2107031;28;20131;-59
2022/05/19 02:56:36;;;;;;;15.37;6.77;;;;;;;;;;2106889;28;20048;-59
2022/05/19 02:57:38;;;;;;;13.60;6.95;;;;;;;;;;2107111;28;20134;-59
2022/05/19 02:58:39;;;;;;;11.95;6.00;;;;;;;;;;2106733;28;20557;-59
2022/05/19 02:59:40;;;;;;;15.50;6.45;;;;;;;;;;2107002;28;20070;-59
2022/05/19 03:00:43;;;;;;;14.73;7.65;;;;;;;;;;2106824;28;20044;-59
2022/05/19 03:01:44;;;;;;;13.30;6.45;;;;;;;;;;2106662;28;20473;-60
2022/05/19 03:02:45;;;;;;;13.10;6.13;;;;;;;;;;2106833;28;20040;-60
2022/05/19 03:03:48;;;;;;;15.80;6.95;;;;;;;;;;2106863;28;20048;-60
2022/05/19 03:04:49;;;;;;;12.63;6.60;;;;;;;;;;2106765;28;20490;-59
2022/05/19 03:05:50;;;;;;;18.77;7.03;;;;;;;;;;2106953;28;20047;-59
2022/05/19 03:06:52;;;;;;;14.95;7.45;;;;;;;;;;2106822;28;20048;-59
2022/05/19 03:07:53;;;;;;;17.10;6.97;;;;;;;;;;2106820;28;20058;-60
2022/05/19 03:08:54;;;;;;;18.08;6.65;;;;;;;;;;2107008;28;20104;-47
2022/05/19 03:09:55;;;;;;;15.20;6.85;;;;;;;;;;2106950;28;20050;-47
2022/05/19 03:10:56;;;;;;;13.93;5.97;;;;;;;;;;2106830;28;20404;-47
2022/05/19 03:11:57;;;;;;;14.30;6.82;;;;;;;;;;2106729;28;20135;-47
2022/05/19 03:12:59;;;;;;;11.63;6.38;;;;;;;;;;2106955;28;20143;-47
2022/05/19 03:14:01;;;;;;;15.05;6.75;;;;;;;;;;2106717;28;20100;-46
2022/05/19 03:15:03;;;;;;;11.95;5.95;;;;;;;;;;2106713;28;20044;-46
2022/05/19 03:16:06;;;;;;;12.68;6.70;;;;;;;;;;2106832;28;20050;-47
2022/05/19 03:17:07;;;;;;;11.35;6.60;;;;;;;;;;2106917;28;20482;-47
2022/05/19 03:18:08;;;;;;;15.07;6.40;;;;;;;;;;2106752;28;20058;-46
2022/05/19 03:19:09;;;;;;;17.08;7.05;;;;;;;;;;2106582;28;20044;-47
2022/05/19 03:20:11;;;;;;;13.32;6.95;;;;;;;;;;2106648;28;20489;-47
2022/05/19 03:21:12;;;;;;;;;;;;;;;;;;2107203;28;20068;-47
2022/05/19 03:22:13;;;;;;;12.98;6.03;;;;;;;;;;2106951;28;20255;-47
2022/05/19 03:23:14;;;;;;;12.25;5.78;;;;;;;;;;2106661;28;20125;-47
2022/05/19 03:24:15;;;;;;;11.45;6.75;;;;;;;;;;2106546;28;20044;-46
2022/05/19 03:25:17;;;;;;;13.33;6.53;;;;;;;;;;2106617;28;20060;-48
2022/05/19 03:26:18;;;;;;;15.35;6.90;;;;;;;;;;2106977;28;20131;-60
2022/05/19 03:27:20;;;;;;;12.10;6.17;;;;;;;;;;2106555;28;20117;-60
2022/05/19 03:28:21;;;;;;;;;;;;;;;;;;2107336;28;20072;-60
2022/05/19 03:29:22;;;;;;;15.50;5.95;;;;;;;;;;2106903;28;19979;-60
2022/05/19 03:30:24;;;;;;;16.37;7.07;;;;;;;;;;2106789;28;20101;-60
2022/05/19 03:31:24;;;;;;;16.48;7.13;;;;;;;;;;2106585;28;20062;-60
2022/05/19 03:32:26;;;;;;;12.95;6.40;;;;;;;;;;2107160;28;20059;-60
2022/05/19 03:33:27;;;;;;;15.25;7.60;;;;;;;;;;2106842;28;20131;-60
2022/05/19 03:34:28;;;;;;;17.20;8.65;;;;;;;;;;2106390;28;20052;-60
2022/05/19 03:35:29;;;;;;;16.58;7.78;;;;;;;;;;2106852;28;20506;-60
2022/05/19 03:36:33;;;;;;;18.23;9.52;;;;;;;;;;2106577;28;20044;-60
2022/05/19 03:37:34;;;;;;;17.10;7.75;;;;;;;;;;2106711;28;20044;-60
2022/05/19 03:38:36;;;;;;;12.23;6.82;;;;;;;;;;2106515;28;20181;-60
2022/05/19 03:39:37;;;;;;;16.63;9.13;;;;;;;;;;2106581;28;20446;-60
2022/05/19 03:40:38;;;;;;;13.57;6.72;;;;;;;;;;2106623;28;20077;-60
2022/05/19 03:41:39;;;;;;;14.32;7.47;;;;;;;;;;2106707;28;20112;-60
2022/05/19 03:42:40;;;;;;;13.02;7.15;;;;;;;;;;2106530;28;20093;-60
2022/05/19 03:43:42;;;;;;;17.40;8.98;;;;;;;;;;2106643;28;20068;-60
2022/05/19 03:44:43;;;;;;;18.00;8.15;;;;;;;;;;2106699;28;20048;-60
2022/05/19 03:45:45;;;;;;;20.40;7.97;;;;;;;;;;2106517;28;20127;-60
2022/05/19 03:46:46;;;;;;;;;;;;;;;;;;2107160;28;20052;-60
2022/05/19 03:47:47;;;;;;;14.40;7.20;;;;;;;;;;2106498;28;19923;-60
2022/05/19 03:48:48;;;;;;;16.73;7.17;;;;;;;;;;2106554;28;20421;-60
2022/05/19 03:49:49;;;;;;;11.80;6.72;;;;;;;;;;2106590;28;20135;-60
2022/05/19 03:50:50;;;;;;;15.73;7.95;;;;;;;;;;2106619;28;20094;-60
2022/05/19 03:51:51;;;;;;;16.63;7.65;;;;;;;;;;2106591;28;20048;-59
2022/05/19 03:52:53;;;;;;;16.70;8.00;;;;;;;;;;2106753;28;20067;-59
2022/05/19 03:53:54;;;;;;;16.13;8.07;;;;;;;;;;2106465;28;20082;-60
2022/05/19 03:54:55;;;;;;;18.83;7.28;;;;;;;;;;2106482;28;20052;-59
2022/05/19 03:55:56;;;;;;;15.93;7.60;;;;;;;;;;2106508;28;20484;-59
2022/05/19 03:56:57;;;;;;;15.23;8.10;;;;;;;;;;2106524;28;20044;-59
2022/05/19 03:57:58;;;;;;;16.83;8.30;;;;;;;;;;2106428;28;20527;-60
2022/05/19 03:58:59;;;;;;;18.17;8.00;;;;;;;;;;2106429;28;20047;-59
2022/05/19 04:00:00;;;;;;;20.75;10.30;;;;;;;;;;2106486;28;20051;-59
2022/05/19 04:01:02;;;;;;;18.63;8.25;;;;;;;;;;2106570;28;20426;-59
2022/05/19 04:02:04;;;;;;;17.38;9.02;;;;;;;;;;2106463;28;20123;-59
2022/05/19 04:03:20;;;;;;;22.60;9.07;;;;;;;;;;2106383;28;20048;-59
2022/05/19 04:04:21;;;;;;;16.70;7.90;;;;;;;;;;2106461;28;20040;-59
2022/05/19 04:05:23;;;;;;;15.67;8.47;;;;;;;;;;2106486;28;20052;-60
2022/05/19 04:06:24;;;;;;;13.52;6.82;;;;;;;;;;2106392;28;20048;-59
2022/05/19 04:07:25;;;;;;;18.97;8.20;;;;;;;;;;2106645;28;20072;-47
2022/05/19 04:08:26;;;;;;;16.90;7.28;;;;;;;;;;2106348;28;20433;-46
2022/05/19 04:09:27;;;;;;;11.02;6.22;;;;;;;;;;2106476;28;20059;-47
2022/05/19 04:10:28;;;;;;;18.73;8.40;;;;;;;;;;2106616;28;20044;-59
2022/05/19 04:11:30;;;;;;;15.63;8.05;;;;;;;;;;2106349;28;20599;-59
2022/05/19 04:12:31;;;;;;;14.65;8.68;;;;;;;;;;2106544;28;20660;-59
2022/05/19 04:13:32;;;;;;;16.77;8.03;;;;;;;;;;2106373;28;20048;-59
2022/05/19 04:14:33;;;;;;;14.98;7.95;;;;;;;;;;2106298;28;20062;-60
2022/05/19 04:15:34;;;;;;;14.13;6.68;;;;;;;;;;2106541;28;20056;-59
2022/05/19 04:16:36;;;;;;;17.58;8.45;;;;;;;;;;2106596;28;20586;-59
2022/05/19 04:17:37;;;;;;;16.45;8.07;;;;;;;;;;2106446;28;20048;-59
2022/05/19 04:18:38;;;;;;;15.57;8.10;;;;;;;;;;2103794;28;20456;-59
2022/05/19 04:19:39;;;;;;;18.63;7.25;;;;;;;;;;2098138;28;20044;-59
2022/05/19 04:20:41;;;;;;;18.08;8.68;;;;;;;;;;2098139;28;20048;-59
2022/05/19 04:21:42;;;;;;;17.40;7.93;;;;;;;;;;2097835;28;20383;-59
2022/05/19 04:22:43;;;;;;;18.63;7.97;;;;;;;;;;2098257;28;20052;-46
2022/05/19 04:23:44;;;;;;;13.55;7.72;;;;;;;;;;2097712;28;20052;-47
2022/05/19 04:24:45;;;;;;;18.40;7.90;;;;;;;;;;2098054;28;20055;-46
2022/05/19 04:25:46;;;;;;;13.07;7.40;;;;;;;;;;2098194;28;20052;-46
2022/05/19 04:26:49;;;;;;;16.92;8.10;;;;;;;;;;2098092;28;20186;-47
2022/05/19 04:27:50;;;;;;;17.45;8.02;;;;;;;;;;2097942;28;20072;-46
2022/05/19 04:28:51;;;;;;;14.90;8.32;;;;;;;;;;2097947;28;20131;-46
2022/05/19 04:29:52;;;;;;;14.90;7.85;;;;;;;;;;2098029;28;20051;-46
2022/05/19 04:30:53;;;;;;;12.55;6.18;;;;;;;;;;2097890;28;20060;-47
2022/05/19 04:31:55;;;;;;;15.40;7.32;;;;;;;;;;2098011;28;20101;-47
2022/05/19 04:32:56;;;;;;;14.25;6.95;;;;;;;;;;2097834;28;20047;-46
2022/05/19 04:33:57;;;;;;;16.38;7.78;;;;;;;;;;2097891;28;20072;-47
2022/05/19 04:34:58;;;;;;;16.70;7.55;;;;;;;;;;2097946;28;20128;-47
2022/05/19 04:36:01;;;;;;;13.90;7.50;;;;;;;;;;2098085;28;20124;-59
2022/05/19 04:37:02;;;;;;;13.02;7.53;;;;;;;;;;2097854;28;20127;-60
2022/05/19 04:38:06;;;;;;;14.35;6.93;;;;;;;;;;2097839;28;20571;-59
2022/05/19 04:39:08;;;;;;;15.55;7.38;;;;;;;;;;2097731;28;20053;-59
2022/05/19 04:40:09;;;;;;;17.17;8.65;;;;;;;;;;2097956;28;20048;-59
2022/05/19 04:41:10;;;;;;;15.38;8.73;;;;;;;;;;2098046;28;20051;-46
2022/05/19 04:42:12;;;;;;;18.85;6.55;;;;;;;;;;2097951;28;20148;-60
2022/05/19 04:43:19;;;;;;;16.17;8.05;;;;;;;;;;2097870;28;20401;-59
2022/05/19 04:44:20;;;;;;;13.00;7.55;;;;;;;;;;2097717;28;20045;-59
2022/05/19 04:45:21;;;;;;;17.37;9.43;;;;;;;;;;2098019;28;20493;-47
2022/05/19 04:46:22;;;;;;;19.40;8.32;;;;;;;;;;2097736;28;20511;-48
2022/05/19 04:47:24;;;;;;;16.13;8.77;;;;;;;;;;2097907;28;20067;-47
2022/05/19 04:48:25;;;;;;;;;;;;;;;;;;2098120;28;20047;-46
2022/05/19 04:49:26;;;;;;;13.20;7.18;;;;;;;;;;2098075;28;20019;-59
2022/05/19 04:50:28;;;;;;;18.00;8.70;;;;;;;;;;2097826;28;20433;-59
2022/05/19 04:51:29;;;;;;;16.83;8.57;;;;;;;;;;2097843;28;20132;-59
2022/05/19 04:52:30;;;;;;;17.92;8.15;;;;;;;;;;2098040;28;20132;-59
2022/05/19 04:53:31;;;;;;;20.27;8.43;;;;;;;;;;2097716;28;20090;-59
2022/05/19 04:54:32;;;;;;;13.50;7.75;;;;;;;;;;2097759;28;20048;-59
2022/05/19 04:55:34;;;;;;;18.25;7.68;;;;;;;;;;2097699;28;20055;-59
2022/05/19 04:56:35;;;;;;;;;;;;;;;;;;2098530;28;20044;-59
2022/05/19 04:57:36;;;;;;;14.98;8.20;;;;;;;;;;2097737;28;20011;-59
2022/05/19 04:58:38;;;;;;;14.25;8.15;;;;;;;;;;2097757;28;20052;-60
2022/05/19 04:59:41;;;;;;;12.98;7.55;;;;;;;;;;2097700;28;20306;-46
2022/05/19 05:00:42;;;;;;;;;;;;;;;;;;2098207;28;20396;-48
2022/05/19 05:01:43;;;;;;;14.60;7.43;;;;;;;;;;2097666;28;20410;-47
2022/05/19 05:02:45;;;;;;;15.38;7.70;;;;;;;;;;2097882;28;20136;-46
2022/05/19 05:03:46;;;;;;;;;;;;;;;;;;2098389;28;20060;-46
2022/05/19 05:04:47;;;;;;;17.83;7.78;;;;;;;;;;2097698;28;20377;-46
2022/05/19 05:05:48;;;;;;;19.48;8.52;;;;;;;;;;2097621;28;20558;-46
2022/05/19 05:06:49;;;;;;;17.00;8.02;;;;;;;;;;2097819;28;20072;-59
2022/05/19 05:07:50;;;;;;;12.32;7.25;;;;;;;;;;2101047;28;20125;-60
2022/05/19 05:08:51;;;;;;;14.53;8.07;;;;;;;;;;2105864;28;20594;-60
2022/05/19 05:09:52;;;;;;;16.35;8.80;;;;;;;;;;2106112;28;20455;-59
2022/05/19 05:10:53;;;;;;;19.60;8.00;;;;;;;;;;2105931;28;20082;-61
2022/05/19 05:11:54;;;;;;;17.10;7.53;;;;;;;;;;2106077;28;20048;-60
2022/05/19 05:12:56;;;;;;;19.30;8.60;;;;;;;;;;2106037;28;20044;-59
2022/05/19 05:13:57;;;;;;;13.50;7.85;;;;;;;;;;2105954;28;20404;-59
2022/05/19 05:14:58;;;;;;;15.15;7.60;;;;;;;;;;2105320;28;20412;-60
2022/05/19 05:15:59;;;;;;;13.85;7.47;;;;;;;;;;2106778;28;20044;-60
2022/05/19 05:17:00;;;;;;;15.23;7.32;;;;;;;;;;2106249;28;20064;-46
2022/05/19 05:18:03;;;;;;;18.13;8.18;;;;;;;;;;2105928;28;20151;-47
2022/05/19 05:19:04;;;;;;;15.75;7.63;;;;;;;;;;2105735;28;20131;-46
2022/05/19 05:20:07;;;;;;;14.68;7.13;;;;;;;;;;2106114;28;20050;-46
2022/05/19 05:21:11;;;;;;;16.00;7.25;;;;;;;;;;2105915;28;20495;-46
2022/05/19 05:22:12;;;;;;;13.40;7.60;;;;;;;;;;2105908;28;20044;-47
2022/05/19 05:23:13;;;;;;;13.52;7.63;;;;;;;;;;2106019;28;20127;-46
2022/05/19 05:24:14;;;;;;;13.93;8.07;;;;;;;;;;2105734;28;20417;-46
2022/05/19 05:25:15;;;;;;;16.20;8.35;;;;;;;;;;2106001;28;20122;-46
2022/05/19 05:26:16;;;;;;;12.23;7.30;;;;;;;;;;2106011;28;20052;-46
2022/05/19 05:27:17;;;;;;;13.85;7.85;;;;;;;;;;2106065;28;20424;-59
2022/05/19 05:28:19;;;;;;;17.55;8.32;;;;;;;;;;2105979;28;20048;-60
2022/05/19 05:29:20;;;;;;;16.20;7.57;;;;;;;;;;2105974;28;20447;-46
2022/05/19 05:30:21;;;;;;;13.48;7.63;;;;;;;;;;2105997;28;20126;-47
2022/05/19 05:31:26;;;;;;;18.90;8.38;;;;;;;;;;2105903;28;20128;-47
2022/05/19 05:32:27;;;;;;;10.98;7.00;;;;;;;;;;2106014;28;20051;-47
2022/05/19 05:33:30;;;;;;;16.30;7.93;;;;;;;;;;2105912;28;20048;-46
2022/05/19 05:34:31;;;;;;;17.33;8.15;;;;;;;;;;2106021;28;20367;-46
2022/05/19 05:35:32;;;;;;;16.53;7.90;;;;;;;;;;2106328;28;20048;-60
2022/05/19 05:36:33;;;;;;;15.30;7.68;;;;;;;;;;2105810;28;20593;-60
2022/05/19 05:37:34;;;;;;;16.45;8.00;;;;;;;;;;2105914;28;20130;-60
2022/05/19 05:38:35;;;;;;;14.82;8.15;;;;;;;;;;2105732;28;20135;-60
2022/05/19 05:39:36;;;;;;;15.70;7.72;;;;;;;;;;2106147;28;20131;-60
2022/05/19 05:40:37;;;;;;;15.50;7.67;;;;;;;;;;2105823;28;20497;-60
2022/05/19 05:41:38;;;;;;;23.73;9.05;;;;;;;;;;2106178;28;20054;-60
2022/05/19 05:42:40;;;;;;;14.27;8.40;;;;;;;;;;2105969;28;20106;-47
2022/05/19 05:43:41;;;;;;;18.20;9.32;;;;;;;;;;2105742;28;20379;-46
2022/05/19 05:44:42;;;;;;;17.58;9.07;;;;;;;;;;2105826;28;20127;-47
2022/05/19 05:45:44;;;;;;;18.92;8.25;;;;;;;;;;2105764;28;20524;-46
2022/05/19 05:46:45;;;;;;;15.38;8.07;;;;;;;;;;2105942;28;20097;-60
2022/05/19 05:47:46;;;;;;;17.45;7.97;;;;;;;;;;2105858;28;20081;-61
2022/05/19 05:48:48;;;;;;;20.05;8.43;;;;;;;;;;2105599;28;20086;-61
2022/05/19 05:49:50;;;;;;;19.75;7.78;;;;;;;;;;2106444;28;20497;-48
2022/05/19 05:50:51;;;;;;;15.00;7.82;;;;;;;;;;2105853;28;20047;-59
2022/05/19 05:51:52;;;;;;;19.70;7.68;;;;;;;;;;2106378;28;20055;-60
2022/05/19 05:52:53;;;;;;;14.93;7.78;;;;;;;;;;2106095;28;20051;-60
2022/05/19 05:53:54;;;;;;;12.07;7.03;;;;;;;;;;2106055;28;20480;-60
2022/05/19 05:54:58;;;;;;;17.25;8.35;;;;;;;;;;2105814;28;20082;-60
2022/05/19 05:56:00;;;;;;;18.33;8.77;;;;;;;;;;2105792;28;20136;-60
2022/05/19 05:57:01;;;;;;;15.90;7.93;;;;;;;;;;2105837;28;20123;-60
2022/05/19 05:58:04;;;;;;;17.02;8.02;;;;;;;;;;2105635;28;20572;-60
2022/05/19 05:59:04;;;;;;;16.08;8.70;;;;;;;;;;2106028;28;20127;-60
2022/05/19 06:00:07;;;;;;;16.42;7.82;;;;;;;;;;2105765;28;20052;-61
2022/05/19 06:01:07;;;;;;;;;;;;;;;;;;2106407;28;20226;-46
2022/05/19 06:02:09;;;;;;;19.15;8.27;;;;;;;;;;2105714;28;19945;-48
2022/05/19 06:03:10;;;;;;;16.05;7.90;;;;;;;;;;2105590;28;20048;-46
2022/05/19 06:04:12;;;;;;;17.83;8.23;;;;;;;;;;2105543;28;20079;-47
2022/05/19 06:05:13;;;;;;;15.15;8.65;;;;;;;;;;2105603;28;20300;-46
2022/05/19 06:06:14;;;;;;;16.10;8.10;;;;;;;;;;2105616;28;20048;-46
2022/05/19 06:07:15;;;;;;;15.05;7.93;;;;;;;;;;2105674;28;20359;-46
2022/05/19 06:08:16;;;;;;;14.82;7.28;;;;;;;;;;2105930;28;20048;-47
2022/05/19 06:09:17;;;;;;;18.80;8.10;;;;;;;;;;2105581;28;20139;-46